createdAt,value
2023-03-23T15:57:55.270Z,23.49
2023-03-23T16:00:27.029Z,23.24
2023-03-23T16:03:05.307Z,23.67
2023-03-23T16:05:33.738Z,22.99
2023-03-23T16:08:01.514Z,23.25
2023-03-23T16:10:30.275Z,23.14
2023-03-23T16:12:57.315Z,23.70
2023-03-23T16:15:24.701Z,22.36
2023-03-23T16:17:52.128Z,23.16
2023-03-23T16:20:23.052Z,23.16
2023-03-23T16:22:51.683Z,22.91
2023-03-23T16:25:19.558Z,23.46
2023-03-23T16:27:52.047Z,22.85
2023-03-23T16:30:25.853Z,23.15
2023-03-23T16:32:54.891Z,22.84
2023-03-23T16:35:23.923Z,22.76
2023-03-23T16:38:07.834Z,22.56
2023-03-23T16:40:37.194Z,23.00
2023-03-23T16:43:08.801Z,22.64
2023-03-23T16:45:43.784Z,22.79
2023-03-23T16:48:13.230Z,21.84
2023-03-23T16:50:41.262Z,21.94
2023-03-23T16:53:09.469Z,20.72
2023-03-23T16:55:38.028Z,22.08
2023-03-23T16:58:16.107Z,21.78
2023-03-23T17:00:46.948Z,21.75
2023-03-23T17:03:16.580Z,22.29
2023-03-23T17:05:45.247Z,21.70
2023-03-23T17:08:13.462Z,21.34
2023-03-23T17:10:41.728Z,21.79
2023-03-23T17:13:09.519Z,21.52
2023-03-23T17:15:41.377Z,22.56
2023-03-23T17:18:08.762Z,22.60
2023-03-23T17:20:36.397Z,22.10
2023-03-23T17:23:04.582Z,22.16
2023-03-23T17:25:32.106Z,22.96
2023-03-23T17:28:16.653Z,21.38
2023-03-23T17:30:45.448Z,22.30
2023-03-23T17:33:13.772Z,22.30
2023-03-23T17:35:42.685Z,22.64
2023-03-23T17:38:09.945Z,22.63
2023-03-23T17:40:37.561Z,21.64
2023-03-23T17:43:04.795Z,22.20
2023-03-23T17:45:31.801Z,21.97
2023-03-23T17:47:59.211Z,22.56
2023-03-23T17:50:26.255Z,22.73
2023-03-23T17:52:53.341Z,22.42
2023-03-23T17:55:20.824Z,22.39
2023-03-23T17:57:47.890Z,21.94
2023-03-23T18:00:16.022Z,22.45
2023-03-23T18:02:43.069Z,21.92
2023-03-23T18:05:10.871Z,22.29
2023-03-23T18:07:37.984Z,22.03
2023-03-23T18:10:11.764Z,22.54
2023-03-23T18:12:42.229Z,22.51
2023-03-23T18:15:10.971Z,22.73
2023-03-23T18:17:38.370Z,22.85
2023-03-23T18:20:07.340Z,22.61
2023-03-23T18:22:35.049Z,22.48
2023-03-23T18:25:05.072Z,22.18
2023-03-23T18:27:36.169Z,22.33
2023-03-23T18:30:03.709Z,22.26
2023-03-23T18:32:30.664Z,21.98
2023-03-23T18:34:58.215Z,22.16
2023-03-23T18:37:26.026Z,22.13
2023-03-23T18:39:54.683Z,21.92
2023-03-23T18:42:21.806Z,22.25
2023-03-23T18:45:04.945Z,22.32
2023-03-23T18:47:37.509Z,22.59
2023-03-23T18:50:10.460Z,22.33
2023-03-23T18:52:38.021Z,21.65
2023-03-23T18:55:05.987Z,21.92
2023-03-23T18:57:33.620Z,22.10
2023-03-23T19:00:00.642Z,22.34
2023-03-23T19:02:27.885Z,21.92
2023-03-23T19:04:55.232Z,21.68
2023-03-23T19:07:22.963Z,21.83
2023-03-23T19:09:50.434Z,22.24
2023-03-23T19:12:17.917Z,22.02
2023-03-23T19:14:45.043Z,21.79
2023-03-23T19:17:12.281Z,21.93
2023-03-23T19:19:43.068Z,21.97
2023-03-23T19:22:12.405Z,22.79
2023-03-23T19:24:39.483Z,22.31
2023-03-23T19:27:08.012Z,21.87
2023-03-23T19:29:35.316Z,21.09
2023-03-23T19:32:03.246Z,21.95
2023-03-23T19:34:31.202Z,21.93
2023-03-23T19:37:05.341Z,21.41
2023-03-23T19:39:33.900Z,21.60
2023-03-23T19:42:01.425Z,22.34
2023-03-23T19:44:29.133Z,21.95
2023-03-23T19:46:56.632Z,21.47
2023-03-23T19:49:25.056Z,22.37
2023-03-23T19:52:05.211Z,22.60
2023-03-23T19:54:38.486Z,22.38
2023-03-23T19:57:05.868Z,21.29
2023-03-23T19:59:33.685Z,22.85
2023-03-23T20:02:02.100Z,22.69
2023-03-23T20:04:29.332Z,22.36
2023-03-23T20:06:57.158Z,22.31
2023-03-23T20:09:25.325Z,21.86
2023-03-23T20:11:53.682Z,21.92
2023-03-23T20:14:21.155Z,21.53
2023-03-23T20:16:48.556Z,21.96
2023-03-23T20:19:15.544Z,22.65
2023-03-23T20:21:42.485Z,22.86
2023-03-23T20:24:09.856Z,22.99
2023-03-23T20:26:41.600Z,22.55
2023-03-23T20:29:09.035Z,22.68
2023-03-23T20:31:39.926Z,22.57
2023-03-23T20:34:12.848Z,22.76
2023-03-23T20:36:47.008Z,22.63
2023-03-23T20:39:23.124Z,22.24
2023-03-23T20:41:54.450Z,22.78
2023-03-23T20:44:25.439Z,22.85
2023-03-23T20:46:53.773Z,22.58
2023-03-23T20:49:22.041Z,23.02
2023-03-23T20:51:49.102Z,22.77
2023-03-23T20:54:18.642Z,22.69
2023-03-23T20:56:46.824Z,22.16
2023-03-23T20:59:14.759Z,22.54
2023-03-23T21:01:49.338Z,22.95
2023-03-23T21:04:22.932Z,22.96
2023-03-23T21:07:00.210Z,22.77
2023-03-23T21:09:27.625Z,22.67
2023-03-23T21:11:54.694Z,22.43
2023-03-23T21:14:21.753Z,22.73
2023-03-23T21:16:49.098Z,22.85
2023-03-23T21:19:17.089Z,22.83
2023-03-23T21:21:56.826Z,23.09
2023-03-23T21:24:30.521Z,22.77
2023-03-23T21:27:00.766Z,23.10
2023-03-23T21:29:28.460Z,22.33
2023-03-23T21:34:27.811Z,21.78
2023-03-23T21:36:55.404Z,22.49
2023-03-23T21:39:23.541Z,22.69
2023-03-23T21:41:50.426Z,22.52
2023-03-23T21:44:18.202Z,22.63
2023-03-23T21:46:45.702Z,22.62
2023-03-23T21:49:16.294Z,22.74
2023-03-23T21:51:43.943Z,22.27
2023-03-23T21:54:11.976Z,22.58
2023-03-23T21:56:39.832Z,22.54
2023-03-23T21:59:07.993Z,22.59
2023-03-23T22:01:36.961Z,22.42
2023-03-23T22:04:05.209Z,22.54
2023-03-23T22:06:34.335Z,22.57
2023-03-23T22:09:05.294Z,22.99
2023-03-23T22:11:32.898Z,22.73
2023-03-23T22:14:01.059Z,22.86
2023-03-23T22:16:28.658Z,22.96
2023-03-23T22:18:58.853Z,22.80
2023-03-23T22:21:27.665Z,23.01
2023-03-23T22:23:59.310Z,23.17
2023-03-23T22:26:27.863Z,23.35
2023-03-23T22:28:55.800Z,23.44
2023-03-23T22:31:27.877Z,23.14
2023-03-23T22:33:56.883Z,23.05
2023-03-23T22:36:26.439Z,23.04
2023-03-23T22:38:55.100Z,23.04
2023-03-23T22:41:42.411Z,23.50
2023-03-23T22:44:18.086Z,23.45
2023-03-23T22:46:46.058Z,23.13
2023-03-23T22:49:13.383Z,22.96
2023-03-23T22:51:40.763Z,23.01
2023-03-23T22:54:07.779Z,23.25
2023-03-23T22:56:37.022Z,23.10
2023-03-23T22:59:08.324Z,23.31
2023-03-23T23:01:35.982Z,23.17
2023-03-23T23:04:03.984Z,23.15
2023-03-23T23:06:31.638Z,22.43
2023-03-23T23:08:59.088Z,22.85
2023-03-23T23:11:26.941Z,22.99
2023-03-23T23:13:54.285Z,23.06
2023-03-23T23:16:22.258Z,23.08
2023-03-23T23:18:49.741Z,23.02
2023-03-23T23:21:20.232Z,23.13
2023-03-23T23:23:47.655Z,22.97
2023-03-23T23:26:16.303Z,22.91
2023-03-23T23:28:45.605Z,23.16
2023-03-23T23:31:26.609Z,23.06
2023-03-23T23:33:56.727Z,22.62
2023-03-23T23:36:29.603Z,22.83
2023-03-23T23:39:01.344Z,22.85
2023-03-23T23:41:29.924Z,22.57
2023-03-23T23:43:57.345Z,22.07
2023-03-23T23:46:24.889Z,22.54
2023-03-23T23:48:52.339Z,22.77
2023-03-23T23:51:19.477Z,22.62
2023-03-23T23:53:53.099Z,22.36
2023-03-23T23:56:24.101Z,22.12
2023-03-23T23:58:51.706Z,21.84
